Salt Lake City, Utah
Traffic Map
Current Weather Conditions
Salt Lake City, Utah
Broken Clouds
Broken Clouds
81°
Feels Like: 81°
Wind Chill: 81° Ceiling: 18000
Heat Index: 81° Visibility: 10mi
Dew Point: 36° Wind: 9mph
Humidity: 20% Direction: 130° (SE)
Pressure: 29.96in Gusts: 0mph
Raw Report DataKSLC 010454Z 13008KT 10SM FEW150 BKN180 27/02 A2996 RMK AO2 SLP081 T02720022 $
Traffic Incident Summary
Active as of:
Severity:
Category:
InformationThere was an issue retrieving the traffic information for this location. Please try a different location or try again shortly.
Advertisements
Track Severe Weather on mobile